sensor_id;sensor_type;location;lat;lon;timestamp;temperature;humidity
44886;DHT22;36669;51.428;21.162;2023-08-12T00:02:04;14.60;99.90
44886;DHT22;36669;51.428;21.162;2023-08-12T00:04:31;14.60;99.90
44886;DHT22;36669;51.428;21.162;2023-08-12T00:06:57;14.50;99.90
44886;DHT22;36669;51.428;21.162;2023-08-12T00:09:24;14.60;99.90
44886;DHT22;36669;51.428;21.162;2023-08-12T00:11:52;14.60;99.90
44886;DHT22;36669;51.428;21.162;2023-08-12T00:14:21;14.50;99.90
44886;DHT22;36669;51.428;21.162;2023-08-12T00:16:48;14.50;99.90
44886;DHT22;36669;51.428;21.162;2023-08-12T00:19:13;14.50;99.90
44886;DHT22;36669;51.428;21.162;2023-08-12T00:21:40;14.50;99.90
44886;DHT22;36669;51.428;21.162;2023-08-12T00:24:07;14.50;99.90
44886;DHT22;36669;51.428;21.162;2023-08-12T00:26:34;14.60;99.90
44886;DHT22;36669;51.428;21.162;2023-08-12T00:29:00;14.60;99.90
44886;DHT22;36669;51.428;21.162;2023-08-12T00:31:28;14.60;99.90
44886;DHT22;36669;51.428;21.162;2023-08-12T00:33:54;14.60;99.90
44886;DHT22;36669;51.428;21.162;2023-08-12T00:36:21;14.50;99.90
44886;DHT22;36669;51.428;21.162;2023-08-12T00:38:49;14.40;99.90
44886;DHT22;36669;51.428;21.162;2023-08-12T00:41:15;14.30;99.90
44886;DHT22;36669;51.428;21.162;2023-08-12T00:43:42;14.20;99.90
44886;DHT22;36669;51.428;21.162;2023-08-12T00:46:09;14.10;99.90
44886;DHT22;36669;51.428;21.162;2023-08-12T00:48:35;14.00;99.90
44886;DHT22;36669;51.428;21.162;2023-08-12T00:51:04;14.00;99.90
44886;DHT22;36669;51.428;21.162;2023-08-12T00:53:40;14.00;99.90
44886;DHT22;36669;51.428;21.162;2023-08-12T00:56:05;13.90;99.90
44886;DHT22;36669;51.428;21.162;2023-08-12T00:58:32;13.90;99.90
44886;DHT22;36669;51.428;21.162;2023-08-12T01:01:01;14.00;99.90
44886;DHT22;36669;51.428;21.162;2023-08-12T01:03:28;14.00;99.90
44886;DHT22;36669;51.428;21.162;2023-08-12T01:05:55;14.00;99.90
44886;DHT22;36669;51.428;21.162;2023-08-12T01:08:25;13.90;99.90
44886;DHT22;36669;51.428;21.162;2023-08-12T01:11:02;13.90;99.90
44886;DHT22;36669;51.428;21.162;2023-08-12T01:16:32;14.10;99.90
44886;DHT22;36669;51.428;21.162;2023-08-12T01:19:00;14.10;99.90
44886;DHT22;36669;51.428;21.162;2023-08-12T01:21:30;14.00;99.90
44886;DHT22;36669;51.428;21.162;2023-08-12T01:23:58;14.00;99.90
44886;DHT22;36669;51.428;21.162;2023-08-12T01:26:26;13.90;99.90
44886;DHT22;36669;51.428;21.162;2023-08-12T01:28:51;13.90;99.90
44886;DHT22;36669;51.428;21.162;2023-08-12T01:31:57;13.80;99.90
44886;DHT22;36669;51.428;21.162;2023-08-12T01:37:58;13.80;99.90
44886;DHT22;36669;51.428;21.162;2023-08-12T01:40:26;13.70;99.90
44886;DHT22;36669;51.428;21.162;2023-08-12T01:42:54;13.60;99.90
44886;DHT22;36669;51.428;21.162;2023-08-12T01:45:20;13.50;99.90
44886;DHT22;36669;51.428;21.162;2023-08-12T01:47:47;13.50;99.90
44886;DHT22;36669;51.428;21.162;2023-08-12T01:50:17;13.40;99.90
44886;DHT22;36669;51.428;21.162;2023-08-12T01:52:46;13.40;99.90
44886;DHT22;36669;51.428;21.162;2023-08-12T01:55:12;13.30;99.90
44886;DHT22;36669;51.428;21.162;2023-08-12T01:57:39;13.40;99.90
44886;DHT22;36669;51.428;21.162;2023-08-12T02:00:05;13.30;99.90
44886;DHT22;36669;51.428;21.162;2023-08-12T02:02:33;13.40;99.90
44886;DHT22;36669;51.428;21.162;2023-08-12T02:04:59;13.40;99.90
44886;DHT22;36669;51.428;21.162;2023-08-12T02:07:25;13.40;99.90
44886;DHT22;36669;51.428;21.162;2023-08-12T02:09:51;13.50;99.90
44886;DHT22;36669;51.428;21.162;2023-08-12T02:12:17;13.50;99.90
44886;DHT22;36669;51.428;21.162;2023-08-12T02:14:44;13.40;99.90
44886;DHT22;36669;51.428;21.162;2023-08-12T02:17:09;13.40;99.90
44886;DHT22;36669;51.428;21.162;2023-08-12T02:19:38;13.20;99.90
44886;DHT22;36669;51.428;21.162;2023-08-12T02:22:04;13.10;99.90
44886;DHT22;36669;51.428;21.162;2023-08-12T02:24:30;13.00;99.90
44886;DHT22;36669;51.428;21.162;2023-08-12T02:26:56;12.80;99.90
44886;DHT22;36669;51.428;21.162;2023-08-12T02:29:22;12.60;99.90
44886;DHT22;36669;51.428;21.162;2023-08-12T02:31:50;12.50;99.90
44886;DHT22;36669;51.428;21.162;2023-08-12T02:34:16;12.50;99.90
44886;DHT22;36669;51.428;21.162;2023-08-12T02:36:44;12.60;99.90
44886;DHT22;36669;51.428;21.162;2023-08-12T02:39:11;12.70;99.90
44886;DHT22;36669;51.428;21.162;2023-08-12T02:41:38;12.60;99.90
44886;DHT22;36669;51.428;21.162;2023-08-12T02:44:06;12.60;99.90
44886;DHT22;36669;51.428;21.162;2023-08-12T02:46:33;12.50;99.90
44886;DHT22;36669;51.428;21.162;2023-08-12T02:49:00;12.50;99.90
44886;DHT22;36669;51.428;21.162;2023-08-12T02:51:27;12.40;99.90
44886;DHT22;36669;51.428;21.162;2023-08-12T02:53:54;12.40;99.90
44886;DHT22;36669;51.428;21.162;2023-08-12T02:56:21;12.50;99.90
44886;DHT22;36669;51.428;21.162;2023-08-12T02:58:48;12.50;99.90
44886;DHT22;36669;51.428;21.162;2023-08-12T03:01:15;12.60;99.90
44886;DHT22;36669;51.428;21.162;2023-08-12T03:03:41;12.50;99.90
44886;DHT22;36669;51.428;21.162;2023-08-12T03:06:08;12.60;99.90
44886;DHT22;36669;51.428;21.162;2023-08-12T03:08:35;12.50;99.90
44886;DHT22;36669;51.428;21.162;2023-08-12T03:11:05;12.50;99.90
44886;DHT22;36669;51.428;21.162;2023-08-12T03:13:32;12.30;99.90
44886;DHT22;36669;51.428;21.162;2023-08-12T03:15:57;12.10;99.90
44886;DHT22;36669;51.428;21.162;2023-08-12T03:18:25;12.00;99.90
44886;DHT22;36669;51.428;21.162;2023-08-12T03:20:52;11.80;99.90
44886;DHT22;36669;51.428;21.162;2023-08-12T03:23:19;11.60;99.90
44886;DHT22;36669;51.428;21.162;2023-08-12T03:25:48;11.40;99.90
44886;DHT22;36669;51.428;21.162;2023-08-12T03:28:16;11.30;99.90
44886;DHT22;36669;51.428;21.162;2023-08-12T03:30:49;11.20;99.90
44886;DHT22;36669;51.428;21.162;2023-08-12T03:33:16;11.10;99.90
44886;DHT22;36669;51.428;21.162;2023-08-12T03:35:48;11.20;99.90
44886;DHT22;36669;51.428;21.162;2023-08-12T03:38:15;11.10;99.90
44886;DHT22;36669;51.428;21.162;2023-08-12T03:40:42;11.10;99.90
44886;DHT22;36669;51.428;21.162;2023-08-12T03:43:09;11.00;99.90
44886;DHT22;36669;51.428;21.162;2023-08-12T03:45:42;11.00;99.90
44886;DHT22;36669;51.428;21.162;2023-08-12T03:48:09;11.10;99.90
44886;DHT22;36669;51.428;21.162;2023-08-12T03:50:39;11.00;99.90
44886;DHT22;36669;51.428;21.162;2023-08-12T03:53:06;11.10;99.90
44886;DHT22;36669;51.428;21.162;2023-08-12T03:55:35;11.30;99.90
44886;DHT22;36669;51.428;21.162;2023-08-12T03:58:01;11.40;99.90
44886;DHT22;36669;51.428;21.162;2023-08-12T04:00:28;11.60;99.90
44886;DHT22;36669;51.428;21.162;2023-08-12T04:02:56;11.70;99.90
44886;DHT22;36669;51.428;21.162;2023-08-12T04:05:23;11.80;99.90
44886;DHT22;36669;51.428;21.162;2023-08-12T04:07:57;11.90;99.90
44886;DHT22;36669;51.428;21.162;2023-08-12T04:10:27;11.90;99.90
44886;DHT22;36669;51.428;21.162;2023-08-12T04:12:53;11.90;99.90
44886;DHT22;36669;51.428;21.162;2023-08-12T04:15:20;11.90;99.90
44886;DHT22;36669;51.428;21.162;2023-08-12T04:17:46;11.90;99.90
44886;DHT22;36669;51.428;21.162;2023-08-12T04:20:11;11.90;99.90
44886;DHT22;36669;51.428;21.162;2023-08-12T04:22:37;12.00;99.90
44886;DHT22;36669;51.428;21.162;2023-08-12T04:25:03;12.10;99.90
44886;DHT22;36669;51.428;21.162;2023-08-12T04:27:30;12.20;99.90
44886;DHT22;36669;51.428;21.162;2023-08-12T04:29:55;12.20;99.90
44886;DHT22;36669;51.428;21.162;2023-08-12T04:32:24;12.30;99.90
44886;DHT22;36669;51.428;21.162;2023-08-12T04:34:52;12.30;99.90
44886;DHT22;36669;51.428;21.162;2023-08-12T04:37:18;12.40;99.90
44886;DHT22;36669;51.428;21.162;2023-08-12T04:39:45;12.60;99.90
44886;DHT22;36669;51.428;21.162;2023-08-12T04:42:13;12.60;99.90
44886;DHT22;36669;51.428;21.162;2023-08-12T04:44:41;12.80;99.90
44886;DHT22;36669;51.428;21.162;2023-08-12T04:47:07;12.90;99.90
44886;DHT22;36669;51.428;21.162;2023-08-12T04:49:34;13.00;99.90
44886;DHT22;36669;51.428;21.162;2023-08-12T04:52:02;13.20;99.90
44886;DHT22;36669;51.428;21.162;2023-08-12T04:54:29;13.30;99.90
44886;DHT22;36669;51.428;21.162;2023-08-12T04:56:56;13.40;99.90
44886;DHT22;36669;51.428;21.162;2023-08-12T04:59:23;13.50;99.90
44886;DHT22;36669;51.428;21.162;2023-08-12T05:01:50;13.60;99.90
44886;DHT22;36669;51.428;21.162;2023-08-12T05:04:18;13.70;99.90
44886;DHT22;36669;51.428;21.162;2023-08-12T05:06:45;13.80;99.90
44886;DHT22;36669;51.428;21.162;2023-08-12T05:09:12;14.00;99.90
44886;DHT22;36669;51.428;21.162;2023-08-12T05:11:38;14.10;99.90
44886;DHT22;36669;51.428;21.162;2023-08-12T05:14:06;14.20;99.90
44886;DHT22;36669;51.428;21.162;2023-08-12T05:16:33;14.30;99.90
44886;DHT22;36669;51.428;21.162;2023-08-12T05:18:58;14.40;99.90
44886;DHT22;36669;51.428;21.162;2023-08-12T05:21:25;14.50;99.90
44886;DHT22;36669;51.428;21.162;2023-08-12T05:23:51;14.60;99.90
44886;DHT22;36669;51.428;21.162;2023-08-12T05:26:18;14.70;99.90
44886;DHT22;36669;51.428;21.162;2023-08-12T05:28:47;14.80;99.90
44886;DHT22;36669;51.428;21.162;2023-08-12T05:31:14;14.90;99.90
44886;DHT22;36669;51.428;21.162;2023-08-12T05:33:41;15.00;99.90
44886;DHT22;36669;51.428;21.162;2023-08-12T05:36:08;15.10;99.90
44886;DHT22;36669;51.428;21.162;2023-08-12T05:38:36;15.20;99.90
44886;DHT22;36669;51.428;21.162;2023-08-12T05:41:05;15.30;99.90
44886;DHT22;36669;51.428;21.162;2023-08-12T05:43:35;15.40;99.90
44886;DHT22;36669;51.428;21.162;2023-08-12T05:46:03;15.50;99.90
44886;DHT22;36669;51.428;21.162;2023-08-12T05:48:29;15.60;99.90
44886;DHT22;36669;51.428;21.162;2023-08-12T05:50:57;15.80;99.90
44886;DHT22;36669;51.428;21.162;2023-08-12T05:53:23;15.90;99.90
44886;DHT22;36669;51.428;21.162;2023-08-12T05:55:49;16.10;99.90
44886;DHT22;36669;51.428;21.162;2023-08-12T05:58:17;16.20;99.90
44886;DHT22;36669;51.428;21.162;2023-08-12T06:00:43;16.30;99.90
44886;DHT22;36669;51.428;21.162;2023-08-12T06:03:12;16.50;99.90
44886;DHT22;36669;51.428;21.162;2023-08-12T06:05:41;16.60;99.90
44886;DHT22;36669;51.428;21.162;2023-08-12T06:08:07;16.70;99.90
44886;DHT22;36669;51.428;21.162;2023-08-12T06:10:34;16.80;99.90
44886;DHT22;36669;51.428;21.162;2023-08-12T06:13:03;16.90;99.90
44886;DHT22;36669;51.428;21.162;2023-08-12T06:15:29;17.00;99.90
44886;DHT22;36669;51.428;21.162;2023-08-12T06:17:56;17.20;99.90
44886;DHT22;36669;51.428;21.162;2023-08-12T06:20:23;17.30;99.90
44886;DHT22;36669;51.428;21.162;2023-08-12T06:22:51;17.40;99.90
44886;DHT22;36669;51.428;21.162;2023-08-12T06:25:20;17.50;99.90
44886;DHT22;36669;51.428;21.162;2023-08-12T06:27:47;17.60;99.90
44886;DHT22;36669;51.428;21.162;2023-08-12T06:30:15;17.80;99.90
44886;DHT22;36669;51.428;21.162;2023-08-12T06:32:41;17.90;99.90
44886;DHT22;36669;51.428;21.162;2023-08-12T06:35:09;18.00;99.90
44886;DHT22;36669;51.428;21.162;2023-08-12T06:37:35;18.20;99.90
44886;DHT22;36669;51.428;21.162;2023-08-12T06:40:01;18.30;99.90
44886;DHT22;36669;51.428;21.162;2023-08-12T06:42:28;18.40;99.90
44886;DHT22;36669;51.428;21.162;2023-08-12T06:44:58;18.50;99.90
44886;DHT22;36669;51.428;21.162;2023-08-12T06:47:27;18.70;99.90
44886;DHT22;36669;51.428;21.162;2023-08-12T06:49:56;18.80;99.90
44886;DHT22;36669;51.428;21.162;2023-08-12T06:52:22;18.90;99.90
44886;DHT22;36669;51.428;21.162;2023-08-12T06:54:49;19.10;99.90
44886;DHT22;36669;51.428;21.162;2023-08-12T06:57:16;19.20;99.90
44886;DHT22;36669;51.428;21.162;2023-08-12T06:59:42;19.30;99.90
44886;DHT22;36669;51.428;21.162;2023-08-12T07:02:09;19.40;99.90
44886;DHT22;36669;51.428;21.162;2023-08-12T07:04:37;19.50;99.90
44886;DHT22;36669;51.428;21.162;2023-08-12T07:07:04;19.60;99.90
44886;DHT22;36669;51.428;21.162;2023-08-12T07:09:31;19.70;99.90
44886;DHT22;36669;51.428;21.162;2023-08-12T07:11:57;19.70;99.90
44886;DHT22;36669;51.428;21.162;2023-08-12T07:14:24;19.90;99.90
44886;DHT22;36669;51.428;21.162;2023-08-12T07:16:50;20.00;99.90
44886;DHT22;36669;51.428;21.162;2023-08-12T07:19:18;20.10;99.90
44886;DHT22;36669;51.428;21.162;2023-08-12T07:21:45;20.10;99.90
44886;DHT22;36669;51.428;21.162;2023-08-12T07:24:12;20.20;99.90
44886;DHT22;36669;51.428;21.162;2023-08-12T07:26:38;20.30;99.90
44886;DHT22;36669;51.428;21.162;2023-08-12T07:29:06;20.50;99.90
44886;DHT22;36669;51.428;21.162;2023-08-12T07:31:32;20.60;99.90
44886;DHT22;36669;51.428;21.162;2023-08-12T07:33:59;20.70;99.90
44886;DHT22;36669;51.428;21.162;2023-08-12T07:36:26;20.80;99.90
44886;DHT22;36669;51.428;21.162;2023-08-12T07:38:53;20.80;99.90
44886;DHT22;36669;51.428;21.162;2023-08-12T07:41:19;20.90;99.90
44886;DHT22;36669;51.428;21.162;2023-08-12T07:43:46;20.90;99.90
44886;DHT22;36669;51.428;21.162;2023-08-12T07:46:13;20.80;99.90
44886;DHT22;36669;51.428;21.162;2023-08-12T07:48:41;20.90;99.90
44886;DHT22;36669;51.428;21.162;2023-08-12T07:51:07;20.90;99.90
44886;DHT22;36669;51.428;21.162;2023-08-12T07:53:33;20.90;99.90
44886;DHT22;36669;51.428;21.162;2023-08-12T07:56:00;21.00;99.90
44886;DHT22;36669;51.428;21.162;2023-08-12T07:58:29;21.10;99.90
44886;DHT22;36669;51.428;21.162;2023-08-12T08:00:56;21.10;99.90
44886;DHT22;36669;51.428;21.162;2023-08-12T08:03:22;21.20;99.90
44886;DHT22;36669;51.428;21.162;2023-08-12T08:05:50;21.30;99.90
44886;DHT22;36669;51.428;21.162;2023-08-12T08:08:19;21.40;99.90
44886;DHT22;36669;51.428;21.162;2023-08-12T08:10:46;21.50;99.90
44886;DHT22;36669;51.428;21.162;2023-08-12T08:13:14;21.60;99.90
44886;DHT22;36669;51.428;21.162;2023-08-12T08:15:41;21.60;99.90
44886;DHT22;36669;51.428;21.162;2023-08-12T08:18:07;21.60;99.90
44886;DHT22;36669;51.428;21.162;2023-08-12T08:20:33;21.30;99.90
44886;DHT22;36669;51.428;21.162;2023-08-12T08:22:59;21.50;99.90
44886;DHT22;36669;51.428;21.162;2023-08-12T08:25:26;21.50;99.90
44886;DHT22;36669;51.428;21.162;2023-08-12T08:27:51;21.70;99.90
44886;DHT22;36669;51.428;21.162;2023-08-12T08:30:19;21.70;99.90
44886;DHT22;36669;51.428;21.162;2023-08-12T08:32:46;21.80;99.90
44886;DHT22;36669;51.428;21.162;2023-08-12T08:35:13;21.90;99.90
44886;DHT22;36669;51.428;21.162;2023-08-12T08:37:40;21.90;99.90
44886;DHT22;36669;51.428;21.162;2023-08-12T08:40:07;22.00;99.90
44886;DHT22;36669;51.428;21.162;2023-08-12T08:42:36;22.00;99.90
44886;DHT22;36669;51.428;21.162;2023-08-12T08:45:07;22.00;99.90
44886;DHT22;36669;51.428;21.162;2023-08-12T08:47:36;22.00;99.90
44886;DHT22;36669;51.428;21.162;2023-08-12T08:50:04;22.10;99.90
44886;DHT22;36669;51.428;21.162;2023-08-12T08:52:33;22.20;99.90
44886;DHT22;36669;51.428;21.162;2023-08-12T08:55:00;22.10;99.90
44886;DHT22;36669;51.428;21.162;2023-08-12T08:57:29;22.00;99.90
44886;DHT22;36669;51.428;21.162;2023-08-12T08:59:56;22.10;99.90
44886;DHT22;36669;51.428;21.162;2023-08-12T09:02:23;22.20;99.90
44886;DHT22;36669;51.428;21.162;2023-08-12T09:04:50;22.40;99.90
44886;DHT22;36669;51.428;21.162;2023-08-12T09:07:19;22.40;99.90
44886;DHT22;36669;51.428;21.162;2023-08-12T09:09:49;22.40;99.90
44886;DHT22;36669;51.428;21.162;2023-08-12T09:12:18;22.30;99.90
44886;DHT22;36669;51.428;21.162;2023-08-12T09:14:44;22.40;99.90
44886;DHT22;36669;51.428;21.162;2023-08-12T09:17:10;22.50;99.90
44886;DHT22;36669;51.428;21.162;2023-08-12T09:19:38;22.70;99.90
44886;DHT22;36669;51.428;21.162;2023-08-12T09:22:07;22.80;99.90
44886;DHT22;36669;51.428;21.162;2023-08-12T09:24:36;22.70;99.90
44886;DHT22;36669;51.428;21.162;2023-08-12T09:27:02;22.70;99.90
44886;DHT22;36669;51.428;21.162;2023-08-12T09:29:34;22.60;99.90
44886;DHT22;36669;51.428;21.162;2023-08-12T09:32:19;22.50;99.90
44886;DHT22;36669;51.428;21.162;2023-08-12T09:34:56;22.20;99.90
44886;DHT22;36669;51.428;21.162;2023-08-12T09:37:24;22.30;99.90
44886;DHT22;36669;51.428;21.162;2023-08-12T09:39:51;22.40;99.90
44886;DHT22;36669;51.428;21.162;2023-08-12T09:42:20;22.50;99.90
44886;DHT22;36669;51.428;21.162;2023-08-12T09:44:46;22.50;99.90
44886;DHT22;36669;51.428;21.162;2023-08-12T09:47:12;22.60;99.90
44886;DHT22;36669;51.428;21.162;2023-08-12T09:49:43;22.70;99.90
44886;DHT22;36669;51.428;21.162;2023-08-12T09:52:09;22.70;99.90
44886;DHT22;36669;51.428;21.162;2023-08-12T09:54:37;22.70;99.90
44886;DHT22;36669;51.428;21.162;2023-08-12T09:57:06;22.80;99.90
44886;DHT22;36669;51.428;21.162;2023-08-12T09:59:35;23.00;99.90
44886;DHT22;36669;51.428;21.162;2023-08-12T10:02:03;23.20;99.90
44886;DHT22;36669;51.428;21.162;2023-08-12T10:04:44;23.10;99.90
44886;DHT22;36669;51.428;21.162;2023-08-12T10:07:12;23.20;99.90
44886;DHT22;36669;51.428;21.162;2023-08-12T10:09:42;23.20;99.90
44886;DHT22;36669;51.428;21.162;2023-08-12T10:12:10;23.10;99.90
44886;DHT22;36669;51.428;21.162;2023-08-12T10:14:38;23.10;99.90
44886;DHT22;36669;51.428;21.162;2023-08-12T10:17:04;23.00;99.90
44886;DHT22;36669;51.428;21.162;2023-08-12T10:19:31;23.30;99.90
44886;DHT22;36669;51.428;21.162;2023-08-12T10:22:00;23.30;99.90
44886;DHT22;36669;51.428;21.162;2023-08-12T10:24:29;23.30;99.90
44886;DHT22;36669;51.428;21.162;2023-08-12T10:26:55;23.50;99.90
44886;DHT22;36669;51.428;21.162;2023-08-12T10:29:26;23.90;99.90
44886;DHT22;36669;51.428;21.162;2023-08-12T10:31:53;24.30;99.90
44886;DHT22;36669;51.428;21.162;2023-08-12T10:34:24;24.50;99.90
44886;DHT22;36669;51.428;21.162;2023-08-12T10:37:03;24.50;99.90
44886;DHT22;36669;51.428;21.162;2023-08-12T10:39:35;24.50;99.90
44886;DHT22;36669;51.428;21.162;2023-08-12T10:42:01;24.40;99.90
44886;DHT22;36669;51.428;21.162;2023-08-12T10:44:52;24.40;99.90
44886;DHT22;36669;51.428;21.162;2023-08-12T10:47:21;24.40;99.90
44886;DHT22;36669;51.428;21.162;2023-08-12T10:49:53;24.30;99.90
44886;DHT22;36669;51.428;21.162;2023-08-12T10:52:35;24.40;99.90
44886;DHT22;36669;51.428;21.162;2023-08-12T10:55:31;24.60;99.90
44886;DHT22;36669;51.428;21.162;2023-08-12T10:58:08;24.50;99.90
44886;DHT22;36669;51.428;21.162;2023-08-12T11:00:38;24.60;99.90
44886;DHT22;36669;51.428;21.162;2023-08-12T11:03:11;24.90;99.90
44886;DHT22;36669;51.428;21.162;2023-08-12T11:05:38;25.30;99.90
44886;DHT22;36669;51.428;21.162;2023-08-12T11:08:07;25.10;99.90
44886;DHT22;36669;51.428;21.162;2023-08-12T11:10:35;25.30;99.90
44886;DHT22;36669;51.428;21.162;2023-08-12T11:13:04;25.60;99.90
44886;DHT22;36669;51.428;21.162;2023-08-12T11:15:41;25.70;99.90
44886;DHT22;36669;51.428;21.162;2023-08-12T11:18:17;25.90;99.90
44886;DHT22;36669;51.428;21.162;2023-08-12T11:20:47;26.30;99.90
44886;DHT22;36669;51.428;21.162;2023-08-12T11:23:18;25.70;99.90
44886;DHT22;36669;51.428;21.162;2023-08-12T11:25:45;25.90;99.90
44886;DHT22;36669;51.428;21.162;2023-08-12T11:28:18;26.20;99.90
44886;DHT22;36669;51.428;21.162;2023-08-12T11:30:49;26.70;99.90
44886;DHT22;36669;51.428;21.162;2023-08-12T11:33:16;27.20;99.90
44886;DHT22;36669;51.428;21.162;2023-08-12T11:35:46;27.50;99.90
44886;DHT22;36669;51.428;21.162;2023-08-12T11:38:12;27.60;99.90
44886;DHT22;36669;51.428;21.162;2023-08-12T11:40:40;27.70;99.90
44886;DHT22;36669;51.428;21.162;2023-08-12T11:43:07;27.80;99.90
44886;DHT22;36669;51.428;21.162;2023-08-12T11:45:34;27.90;99.90
44886;DHT22;36669;51.428;21.162;2023-08-12T11:48:01;28.00;99.90
44886;DHT22;36669;51.428;21.162;2023-08-12T11:50:28;27.60;99.90
44886;DHT22;36669;51.428;21.162;2023-08-12T11:52:55;27.00;99.90
44886;DHT22;36669;51.428;21.162;2023-08-12T11:55:23;27.60;99.90
44886;DHT22;36669;51.428;21.162;2023-08-12T11:57:51;28.00;99.90
44886;DHT22;36669;51.428;21.162;2023-08-12T12:00:19;28.10;99.90
44886;DHT22;36669;51.428;21.162;2023-08-12T12:02:50;28.50;99.90
44886;DHT22;36669;51.428;21.162;2023-08-12T12:05:22;28.70;99.90
44886;DHT22;36669;51.428;21.162;2023-08-12T12:07:48;29.10;99.90
44886;DHT22;36669;51.428;21.162;2023-08-12T12:10:32;29.40;99.90
44886;DHT22;36669;51.428;21.162;2023-08-12T12:13:00;29.50;99.90
44886;DHT22;36669;51.428;21.162;2023-08-12T12:15:26;29.60;99.90
44886;DHT22;36669;51.428;21.162;2023-08-12T12:17:52;29.60;99.90
44886;DHT22;36669;51.428;21.162;2023-08-12T12:20:20;29.70;99.90
44886;DHT22;36669;51.428;21.162;2023-08-12T12:22:48;29.50;97.70
44886;DHT22;36669;51.428;21.162;2023-08-12T12:25:17;28.70;98.80
44886;DHT22;36669;51.428;21.162;2023-08-12T12:27:47;28.20;98.50
44886;DHT22;36669;51.428;21.162;2023-08-12T12:30:14;28.00;98.40
44886;DHT22;36669;51.428;21.162;2023-08-12T12:32:40;28.30;99.30
44886;DHT22;36669;51.428;21.162;2023-08-12T12:35:09;28.40;99.50
44886;DHT22;36669;51.428;21.162;2023-08-12T12:37:36;28.80;98.40
44886;DHT22;36669;51.428;21.162;2023-08-12T12:40:02;28.90;98.20
44886;DHT22;36669;51.428;21.162;2023-08-12T12:42:30;28.50;97.20
44886;DHT22;36669;51.428;21.162;2023-08-12T12:44:57;27.90;97.90
44886;DHT22;36669;51.428;21.162;2023-08-12T12:47:24;27.80;96.70
44886;DHT22;36669;51.428;21.162;2023-08-12T12:49:51;27.50;97.80
44886;DHT22;36669;51.428;21.162;2023-08-12T12:52:18;26.50;98.00
44886;DHT22;36669;51.428;21.162;2023-08-12T12:54:43;26.30;99.50
44886;DHT22;36669;51.428;21.162;2023-08-12T12:57:09;26.50;99.20
44886;DHT22;36669;51.428;21.162;2023-08-12T12:59:35;27.20;98.80
44886;DHT22;36669;51.428;21.162;2023-08-12T13:02:01;27.40;98.50
44886;DHT22;36669;51.428;21.162;2023-08-12T13:04:28;27.80;98.10
44886;DHT22;36669;51.428;21.162;2023-08-12T13:06:55;28.30;98.20
44886;DHT22;36669;51.428;21.162;2023-08-12T13:09:22;28.50;97.10
44886;DHT22;36669;51.428;21.162;2023-08-12T13:11:49;28.20;97.60
44886;DHT22;36669;51.428;21.162;2023-08-12T13:14:16;28.90;98.00
44886;DHT22;36669;51.428;21.162;2023-08-12T13:16:47;29.30;97.30
44886;DHT22;36669;51.428;21.162;2023-08-12T13:19:14;30.00;96.90
44886;DHT22;36669;51.428;21.162;2023-08-12T13:21:42;30.40;97.50
44886;DHT22;36669;51.428;21.162;2023-08-12T13:24:10;30.80;95.80
44886;DHT22;36669;51.428;21.162;2023-08-12T13:26:38;31.30;95.90
44886;DHT22;36669;51.428;21.162;2023-08-12T13:29:05;31.80;93.70
44886;DHT22;36669;51.428;21.162;2023-08-12T13:31:32;32.10;92.80
44886;DHT22;36669;51.428;21.162;2023-08-12T13:33:58;32.40;93.50
44886;DHT22;36669;51.428;21.162;2023-08-12T13:36:25;32.20;93.10
44886;DHT22;36669;51.428;21.162;2023-08-12T13:38:52;32.20;92.40
44886;DHT22;36669;51.428;21.162;2023-08-12T13:41:20;32.70;91.20
44886;DHT22;36669;51.428;21.162;2023-08-12T13:43:46;32.90;91.50
44886;DHT22;36669;51.428;21.162;2023-08-12T13:46:13;32.90;91.50
44886;DHT22;36669;51.428;21.162;2023-08-12T13:48:39;32.90;90.40
44886;DHT22;36669;51.428;21.162;2023-08-12T13:51:09;33.10;90.80
44886;DHT22;36669;51.428;21.162;2023-08-12T13:53:35;33.40;91.30
44886;DHT22;36669;51.428;21.162;2023-08-12T13:56:01;33.80;90.40
44886;DHT22;36669;51.428;21.162;2023-08-12T13:58:28;33.70;90.00
44886;DHT22;36669;51.428;21.162;2023-08-12T14:00:55;33.50;89.20
44886;DHT22;36669;51.428;21.162;2023-08-12T14:03:21;33.40;87.50
44886;DHT22;36669;51.428;21.162;2023-08-12T14:05:48;33.50;89.20
44886;DHT22;36669;51.428;21.162;2023-08-12T14:08:16;34.00;87.40
44886;DHT22;36669;51.428;21.162;2023-08-12T14:10:43;34.80;85.90
44886;DHT22;36669;51.428;21.162;2023-08-12T14:13:13;35.80;84.50
44886;DHT22;36669;51.428;21.162;2023-08-12T14:15:40;36.30;84.40
44886;DHT22;36669;51.428;21.162;2023-08-12T14:18:08;37.10;81.50
44886;DHT22;36669;51.428;21.162;2023-08-12T14:20:35;37.50;75.40
44886;DHT22;36669;51.428;21.162;2023-08-12T14:23:03;38.90;75.30
44886;DHT22;36669;51.428;21.162;2023-08-12T14:25:30;39.40;71.80
44886;DHT22;36669;51.428;21.162;2023-08-12T14:27:57;39.80;67.80
44886;DHT22;36669;51.428;21.162;2023-08-12T14:30:25;40.00;67.80
44886;DHT22;36669;51.428;21.162;2023-08-12T14:32:53;39.70;65.20
44886;DHT22;36669;51.428;21.162;2023-08-12T14:35:21;39.60;64.80
44886;DHT22;36669;51.428;21.162;2023-08-12T14:37:48;39.50;65.00
44886;DHT22;36669;51.428;21.162;2023-08-12T14:40:15;39.50;63.20
44886;DHT22;36669;51.428;21.162;2023-08-12T14:42:42;39.60;61.00
44886;DHT22;36669;51.428;21.162;2023-08-12T14:45:10;39.50;60.50
44886;DHT22;36669;51.428;21.162;2023-08-12T14:47:37;39.30;60.60
44886;DHT22;36669;51.428;21.162;2023-08-12T14:50:06;39.00;59.50
44886;DHT22;36669;51.428;21.162;2023-08-12T14:52:33;38.70;60.20
44886;DHT22;36669;51.428;21.162;2023-08-12T14:55:00;38.60;59.00
44886;DHT22;36669;51.428;21.162;2023-08-12T14:57:27;38.40;59.60
44886;DHT22;36669;51.428;21.162;2023-08-12T14:59:54;38.10;59.40
44886;DHT22;36669;51.428;21.162;2023-08-12T15:02:24;38.20;59.00
44886;DHT22;36669;51.428;21.162;2023-08-12T15:04:53;38.00;58.40
44886;DHT22;36669;51.428;21.162;2023-08-12T15:07:28;38.10;59.10
44886;DHT22;36669;51.428;21.162;2023-08-12T15:09:55;38.00;59.20
44886;DHT22;36669;51.428;21.162;2023-08-12T15:12:25;37.90;57.40
44886;DHT22;36669;51.428;21.162;2023-08-12T15:14:55;37.80;57.40
44886;DHT22;36669;51.428;21.162;2023-08-12T15:17:21;37.60;57.80
44886;DHT22;36669;51.428;21.162;2023-08-12T15:19:48;37.50;57.80
44886;DHT22;36669;51.428;21.162;2023-08-12T15:22:16;37.50;56.90
44886;DHT22;36669;51.428;21.162;2023-08-12T15:24:42;37.20;56.40
44886;DHT22;36669;51.428;21.162;2023-08-12T15:27:09;37.20;57.70